createdAt,value
2019-04-25T00:01:42.552Z,16.63
2019-04-25T00:04:12.204Z,16.32
2019-04-25T00:06:38.627Z,17.17
2019-04-25T00:09:04.853Z,17.70
2019-04-25T00:11:29.332Z,17.66
2019-04-25T00:13:53.953Z,17.95
2019-04-25T00:16:21.402Z,17.71
2019-04-25T00:18:46.338Z,17.21
2019-04-25T00:21:15.205Z,17.31
2019-04-25T00:23:42.442Z,16.21
2019-04-25T00:26:08.970Z,16.23
2019-04-25T00:28:33.486Z,16.83
2019-04-25T00:30:58.166Z,16.87
2019-04-25T00:33:22.634Z,17.02
2019-04-25T00:35:47.445Z,16.77
2019-04-25T00:38:12.684Z,16.45
2019-04-25T00:40:37.225Z,16.71
2019-04-25T00:43:01.758Z,16.34
2019-04-25T00:45:26.295Z,15.75
2019-04-25T00:47:51.879Z,15.84
2019-04-25T00:50:17.217Z,15.42
2019-04-25T00:52:43.553Z,15.39
2019-04-25T00:55:08.503Z,14.88
2019-04-25T00:57:33.042Z,15.29
2019-04-25T01:00:05.237Z,14.75
2019-04-25T01:02:31.564Z,15.08
2019-04-25T01:04:56.148Z,14.80
2019-04-25T01:07:22.386Z,14.65
2019-04-25T01:09:47.712Z,14.56
2019-04-25T01:12:12.891Z,14.31
2019-04-25T01:14:37.422Z,14.41
2019-04-25T01:17:01.951Z,14.27
2019-04-25T01:19:26.554Z,14.60
2019-04-25T01:21:51.250Z,14.52
2019-04-25T01:24:15.929Z,14.62
2019-04-25T01:26:40.513Z,14.23
2019-04-25T01:29:05.779Z,14.54
2019-04-25T01:31:31.509Z,14.58
2019-04-25T01:33:56.610Z,14.33
2019-04-25T01:36:33.223Z,14.24
2019-04-25T01:39:04.218Z,14.26
2019-04-25T01:41:39.779Z,14.35
2019-04-25T01:44:12.133Z,14.56
2019-04-25T01:46:38.431Z,14.23
2019-04-25T01:49:04.327Z,14.90
2019-04-25T01:51:28.937Z,14.69
2019-04-25T01:53:54.858Z,15.14
2019-04-25T01:56:19.841Z,15.63
2019-04-25T01:58:44.438Z,14.73
2019-04-25T02:01:09.454Z,15.49
2019-04-25T02:03:35.463Z,15.51
2019-04-25T02:06:00.325Z,15.75
2019-04-25T02:08:24.863Z,15.78
2019-04-25T02:10:51.046Z,15.75
2019-04-25T02:13:19.868Z,15.60
2019-04-25T02:15:44.469Z,15.82
2019-04-25T02:18:09.037Z,15.69
2019-04-25T02:20:34.005Z,15.66
2019-04-25T02:22:58.574Z,15.58
2019-04-25T02:25:24.598Z,15.35
2019-04-25T02:27:49.119Z,14.83
2019-04-25T02:30:15.785Z,14.63
2019-04-25T02:32:40.518Z,14.86
2019-04-25T02:35:09.505Z,15.45
2019-04-25T02:37:35.171Z,15.22
2019-04-25T02:40:01.441Z,15.45
2019-04-25T02:42:26.144Z,15.27
2019-04-25T02:44:54.728Z,14.95
2019-04-25T02:47:20.220Z,14.16
2019-04-25T02:49:57.312Z,14.44
2019-04-25T02:52:25.900Z,14.95
2019-04-25T02:54:50.461Z,15.41
2019-04-25T02:57:15.024Z,15.46
2019-04-25T02:59:39.644Z,15.15
2019-04-25T03:02:07.586Z,15.52
2019-04-25T03:04:33.782Z,15.69
2019-04-25T03:07:00.091Z,15.78
2019-04-25T03:09:25.032Z,15.59
2019-04-25T03:11:49.682Z,15.69
2019-04-25T03:14:14.762Z,15.58
2019-04-25T03:16:39.358Z,15.72
2019-04-25T03:19:09.480Z,15.77
2019-04-25T03:21:37.487Z,15.60
2019-04-25T03:24:05.277Z,15.69
2019-04-25T03:26:37.944Z,15.64
2019-04-25T03:28:54.611Z,15.60
2019-04-25T03:31:22.866Z,15.57
2019-04-25T03:33:46.220Z,15.54
2019-04-25T03:36:11.212Z,15.60
2019-04-25T03:38:35.773Z,15.50
2019-04-25T03:41:00.965Z,15.33
2019-04-25T03:43:25.545Z,15.35
2019-04-25T03:45:50.029Z,15.05
2019-04-25T03:48:14.638Z,15.11
2019-04-25T03:50:39.327Z,15.07
2019-04-25T03:53:05.321Z,14.21
2019-04-25T03:55:30.299Z,14.57
2019-04-25T03:57:54.871Z,14.20
2019-04-25T04:00:19.493Z,14.31
2019-04-25T04:02:44.410Z,14.02
2019-04-25T04:05:09.615Z,14.08
2019-04-25T04:07:34.194Z,14.31
2019-04-25T04:09:58.669Z,14.09
2019-04-25T04:12:24.324Z,14.44
2019-04-25T04:14:49.147Z,14.28
2019-04-25T04:17:16.069Z,14.29
2019-04-25T04:19:54.594Z,14.37
2019-04-25T04:22:35.905Z,14.58
2019-04-25T04:25:04.342Z,14.53
2019-04-25T04:27:35.152Z,14.68
2019-04-25T04:30:01.973Z,14.51
2019-04-25T04:32:36.475Z,14.46
2019-04-25T04:35:03.473Z,14.54
2019-04-25T04:37:28.338Z,14.62
2019-04-25T04:40:01.356Z,14.15
2019-04-25T04:42:40.090Z,14.21
2019-04-25T04:48:14.100Z,14.17
2019-04-25T04:50:54.466Z,14.58
2019-04-25T04:53:43.817Z,14.68
2019-04-25T04:56:27.133Z,14.82
2019-04-25T04:59:19.721Z,14.83
2019-04-25T05:08:04.563Z,13.85
2019-04-25T05:10:37.479Z,14.93
2019-04-25T05:13:04.324Z,15.25
2019-04-25T05:15:31.387Z,15.11
2019-04-25T05:17:55.921Z,14.99
2019-04-25T05:20:20.479Z,15.08
2019-04-25T05:22:44.947Z,14.79
2019-04-25T05:25:09.684Z,14.62
2019-04-25T05:27:45.976Z,14.78
2019-04-25T05:30:00.517Z,14.63
2019-04-25T05:32:25.238Z,14.70
2019-04-25T05:34:49.741Z,14.82
2019-04-25T05:37:15.183Z,14.55
2019-04-25T05:39:40.107Z,14.24
2019-04-25T05:42:17.125Z,14.37
2019-04-25T05:44:41.354Z,14.70
2019-04-25T05:47:05.985Z,14.66
2019-04-25T05:49:30.473Z,14.68
2019-04-25T05:51:54.940Z,14.70
2019-04-25T05:54:19.485Z,14.80
2019-04-25T05:56:44.008Z,14.80
2019-04-25T05:59:08.544Z,14.86
2019-04-25T06:01:34.320Z,15.03
2019-04-25T06:03:59.274Z,14.78
2019-04-25T06:06:24.773Z,15.08
2019-04-25T06:08:54.244Z,15.01
2019-04-25T06:11:29.598Z,15.19
2019-04-25T06:13:55.715Z,14.96
2019-04-25T06:16:27.061Z,14.97
2019-04-25T06:18:58.350Z,15.04
2019-04-25T06:21:23.576Z,15.26
2019-04-25T06:23:50.781Z,15.40
2019-04-25T06:26:24.910Z,15.49
2019-04-25T06:28:52.038Z,15.22
2019-04-25T06:31:10.435Z,15.69
2019-04-25T06:33:35.141Z,15.26
2019-04-25T06:35:59.649Z,15.53
2019-04-25T06:38:27.241Z,15.23
2019-04-25T06:40:53.583Z,15.66
2019-04-25T06:43:18.194Z,15.70
2019-04-25T06:45:50.397Z,15.68
2019-04-25T06:48:26.054Z,15.75
2019-04-25T06:50:51.414Z,16.05
2019-04-25T06:53:16.004Z,15.18
2019-04-25T06:55:40.549Z,15.89
2019-04-25T06:58:11.694Z,16.07
2019-04-25T07:00:35.198Z,15.91
2019-04-25T07:02:57.731Z,16.24
2019-04-25T07:05:28.957Z,15.79
2019-04-25T07:07:49.550Z,15.65
2019-04-25T07:10:14.386Z,16.12
2019-04-25T07:12:40.077Z,15.92
2019-04-25T07:15:13.801Z,16.29
2019-04-25T07:17:38.733Z,16.24
2019-04-25T07:20:04.880Z,16.47
2019-04-25T07:22:29.638Z,16.61
2019-04-25T07:24:54.343Z,16.14
2019-04-25T07:27:26.821Z,16.41
2019-04-25T07:30:08.438Z,16.65
2019-04-25T07:32:37.280Z,16.81
2019-04-25T07:35:03.470Z,16.83
2019-04-25T07:37:28.327Z,16.50
2019-04-25T07:39:54.200Z,16.51
2019-04-25T07:42:18.891Z,16.52
2019-04-25T07:44:52.043Z,16.68
2019-04-25T07:47:09.697Z,16.65
2019-04-25T07:49:34.817Z,16.95
2019-04-25T07:51:59.809Z,16.95
2019-04-25T07:54:26.388Z,17.26
2019-04-25T07:56:50.593Z,17.10
2019-04-25T07:59:15.118Z,17.10
2019-04-25T08:01:39.829Z,17.04
2019-04-25T08:04:04.828Z,17.21
2019-04-25T08:06:29.427Z,17.28
2019-04-25T08:08:54.606Z,17.43
2019-04-25T08:11:19.545Z,17.15
2019-04-25T08:13:48.698Z,17.46
2019-04-25T08:16:14.945Z,17.28
2019-04-25T08:18:40.364Z,17.70
2019-04-25T08:21:04.982Z,17.87
2019-04-25T08:23:32.345Z,17.91
2019-04-25T08:25:55.801Z,17.51
2019-04-25T08:28:23.685Z,17.81
2019-04-25T08:30:48.351Z,17.91
2019-04-25T08:33:13.919Z,18.46
2019-04-25T08:35:38.549Z,18.13
2019-04-25T08:38:03.422Z,18.11
2019-04-25T08:40:31.631Z,17.75
2019-04-25T08:42:57.058Z,17.91
2019-04-25T08:45:21.763Z,18.37
2019-04-25T08:47:46.207Z,18.19
2019-04-25T08:50:26.947Z,18.35
2019-04-25T08:52:42.851Z,18.45
2019-04-25T08:55:14.262Z,18.27
2019-04-25T08:57:55.678Z,18.27
2019-04-25T09:00:33.053Z,18.40
2019-04-25T09:02:59.838Z,18.68
2019-04-25T09:05:26.624Z,18.77
2019-04-25T09:07:51.142Z,18.92
2019-04-25T09:10:15.690Z,19.27
2019-04-25T09:12:40.252Z,19.04
2019-04-25T09:15:06.517Z,19.25
2019-04-25T09:17:31.034Z,19.41
2019-04-25T09:19:55.491Z,19.68
2019-04-25T09:22:20.043Z,19.95
2019-04-25T09:24:45.355Z,19.81
2019-04-25T09:27:09.863Z,19.63
2019-04-25T09:29:35.382Z,19.99
2019-04-25T09:32:00.459Z,20.17
2019-04-25T09:34:24.915Z,20.10
2019-04-25T09:36:49.376Z,20.09
2019-04-25T09:39:24.630Z,19.94
2019-04-25T09:41:49.099Z,20.13
2019-04-25T09:44:15.710Z,20.51
2019-04-25T09:46:40.269Z,20.30
2019-04-25T09:49:09.354Z,20.90
2019-04-25T09:51:36.044Z,20.61
2019-04-25T09:54:15.190Z,20.37
2019-04-25T09:56:41.567Z,20.68
2019-04-25T09:59:10.803Z,20.85
2019-04-25T10:01:36.554Z,20.86
2019-04-25T10:04:01.074Z,21.35
2019-04-25T10:06:25.872Z,21.79
2019-04-25T10:08:50.450Z,21.91
2019-04-25T10:11:15.272Z,22.11
2019-04-25T10:13:40.115Z,21.75
2019-04-25T10:16:13.952Z,21.70
2019-04-25T10:18:39.264Z,22.16
2019-04-25T10:21:06.890Z,21.81
2019-04-25T10:23:31.381Z,21.54
2019-04-25T10:25:55.999Z,22.08
2019-04-25T10:28:20.690Z,22.05
2019-04-25T10:30:45.292Z,21.80
2019-04-25T10:33:09.825Z,21.80
2019-04-25T10:35:46.694Z,21.79
2019-04-25T10:38:00.888Z,22.25
2019-04-25T10:40:25.798Z,22.15
2019-04-25T10:42:50.754Z,22.49
2019-04-25T10:45:23.173Z,22.38
2019-04-25T10:47:44.272Z,22.82
2019-04-25T10:50:09.002Z,22.53
2019-04-25T10:52:33.838Z,22.43
2019-04-25T10:54:58.318Z,22.30
2019-04-25T10:57:24.789Z,23.00
2019-04-25T11:00:00.707Z,22.91
2019-04-25T11:02:15.516Z,23.11
2019-04-25T11:04:48.848Z,23.23
2019-04-25T11:07:13.908Z,23.15
2019-04-25T11:09:38.387Z,22.91
2019-04-25T11:12:03.312Z,23.10
2019-04-25T11:14:30.925Z,23.21
2019-04-25T11:16:56.412Z,23.15
2019-04-25T11:19:21.011Z,23.12
2019-04-25T11:21:46.558Z,23.29
2019-04-25T11:24:11.174Z,23.15
2019-04-25T11:26:35.780Z,23.03
2019-04-25T11:29:00.418Z,23.67
2019-04-25T11:31:26.770Z,23.69
2019-04-25T11:33:51.313Z,23.55
2019-04-25T11:36:15.913Z,24.07
2019-04-25T11:38:58.301Z,23.72
2019-04-25T11:41:24.314Z,24.09
2019-04-25T11:43:48.951Z,24.26
2019-04-25T11:46:14.523Z,23.78
2019-04-25T11:48:39.131Z,24.67
2019-04-25T11:51:05.244Z,24.27
2019-04-25T11:53:29.823Z,24.20
2019-04-25T11:55:54.731Z,24.20
2019-04-25T11:58:19.479Z,23.72
2019-04-25T12:00:46.245Z,24.26
2019-04-25T12:03:11.658Z,24.01
2019-04-25T12:05:36.138Z,24.56
2019-04-25T12:08:00.702Z,24.35
2019-04-25T12:10:25.577Z,24.35
2019-04-25T12:12:50.115Z,24.82
2019-04-25T12:15:14.892Z,24.81
2019-04-25T12:17:39.449Z,24.69
2019-04-25T12:20:04.704Z,25.65
2019-04-25T12:22:29.163Z,24.96
2019-04-25T12:24:54.731Z,25.12
2019-04-25T12:27:19.841Z,24.95
2019-04-25T12:29:45.843Z,24.95
2019-04-25T12:32:10.596Z,24.97
2019-04-25T12:34:35.061Z,25.38
2019-04-25T12:36:59.902Z,25.57
2019-04-25T12:39:24.706Z,25.64
2019-04-25T12:41:50.417Z,25.76
2019-04-25T12:44:32.732Z,26.24
2019-04-25T12:46:58.911Z,27.08
2019-04-25T12:49:24.211Z,26.23
2019-04-25T12:51:49.763Z,25.54
2019-04-25T12:54:14.246Z,25.98
2019-04-25T12:56:38.777Z,27.40
2019-04-25T12:59:03.393Z,27.71
2019-04-25T13:01:27.932Z,27.05
2019-04-25T13:03:54.017Z,27.35
2019-04-25T13:06:18.549Z,28.40
2019-04-25T13:08:44.111Z,28.40
2019-04-25T13:11:10.484Z,28.95
2019-04-25T13:13:34.932Z,27.76
2019-04-25T13:15:59.474Z,26.66
2019-04-25T13:18:23.939Z,26.91
2019-04-25T13:20:48.405Z,27.21
2019-04-25T13:23:14.410Z,27.03
2019-04-25T13:25:39.169Z,28.10
2019-04-25T13:28:11.355Z,28.37
2019-04-25T13:31:01.272Z,28.06
2019-04-25T13:33:23.504Z,29.00
2019-04-25T13:35:49.293Z,26.89
2019-04-25T13:38:13.824Z,28.12
2019-04-25T13:40:38.375Z,28.43
2019-04-25T13:43:04.918Z,28.14
2019-04-25T13:45:29.191Z,28.38
2019-04-25T13:47:53.801Z,28.83
2019-04-25T13:50:18.265Z,29.47
2019-04-25T13:52:43.250Z,29.97
2019-04-25T13:55:08.489Z,30.15
2019-04-25T13:57:33.054Z,29.33
2019-04-25T13:59:57.530Z,30.15
2019-04-25T14:02:22.730Z,30.14
2019-04-25T14:04:47.277Z,29.29
2019-04-25T14:07:11.890Z,30.28
2019-04-25T14:09:36.442Z,30.53
2019-04-25T14:12:01.003Z,30.01
2019-04-25T14:14:25.596Z,30.18
2019-04-25T14:16:54.686Z,29.96
2019-04-25T14:19:39.023Z,30.43
2019-04-25T14:22:05.251Z,30.43
2019-04-25T14:24:31.074Z,30.06
2019-04-25T14:26:55.955Z,30.21
2019-04-25T14:29:20.477Z,29.91
2019-04-25T14:31:48.388Z,30.56
2019-04-25T14:34:13.218Z,30.69
2019-04-25T14:36:37.872Z,29.98
2019-04-25T14:39:03.091Z,30.93
2019-04-25T14:41:28.133Z,30.84
2019-04-25T14:43:52.827Z,30.63
2019-04-25T14:46:17.312Z,30.25
2019-04-25T14:48:41.821Z,30.91
2019-04-25T14:51:06.414Z,31.06
2019-04-25T14:53:33.589Z,30.92
2019-04-25T14:56:17.013Z,30.52
2019-04-25T14:58:43.326Z,30.70
2019-04-25T15:01:08.157Z,30.69
2019-04-25T15:03:32.649Z,31.01
2019-04-25T15:05:57.230Z,31.06
2019-04-25T15:08:21.711Z,30.79
2019-04-25T15:10:48.438Z,30.87
2019-04-25T15:13:12.680Z,30.83
2019-04-25T15:15:37.150Z,30.75
2019-04-25T15:18:01.697Z,30.72
2019-04-25T15:20:26.256Z,30.81
2019-04-25T15:22:50.750Z,30.38
2019-04-25T15:25:15.281Z,30.59
2019-04-25T15:27:39.843Z,30.65
2019-04-25T15:30:07.731Z,30.60
2019-04-25T15:32:34.781Z,31.21
2019-04-25T15:34:59.608Z,30.63
2019-04-25T15:37:26.474Z,30.63
2019-04-25T15:39:52.695Z,30.83
2019-04-25T15:42:35.182Z,30.98
2019-04-25T15:45:17.955Z,30.83
2019-04-25T15:47:42.517Z,30.31
2019-04-25T15:50:07.709Z,30.70
2019-04-25T15:52:32.197Z,30.54
2019-04-25T15:55:06.498Z,30.33
2019-04-25T15:57:22.996Z,30.09
2019-04-25T15:59:47.542Z,29.95
2019-04-25T16:02:13.736Z,30.16
2019-04-25T16:04:38.195Z,29.96
2019-04-25T16:07:02.673Z,30.13
2019-04-25T16:09:27.929Z,29.69
2019-04-25T16:11:52.532Z,29.45
2019-04-25T16:14:16.987Z,29.66
2019-04-25T16:16:41.559Z,29.64
2019-04-25T16:19:07.174Z,29.62
2019-04-25T16:21:31.678Z,29.85
2019-04-25T16:23:56.305Z,28.85
2019-04-25T16:26:20.768Z,29.13
2019-04-25T16:28:45.305Z,29.19
2019-04-25T16:31:11.519Z,29.19
2019-04-25T16:33:35.969Z,28.49
2019-04-25T16:36:00.529Z,28.72
2019-04-25T16:38:25.804Z,28.79
2019-04-25T16:40:50.342Z,28.75
2019-04-25T16:43:16.511Z,28.34
2019-04-25T16:45:41.379Z,28.65
2019-04-25T16:48:06.056Z,28.75
2019-04-25T16:50:31.697Z,28.13
2019-04-25T16:52:56.162Z,28.08
2019-04-25T16:55:20.866Z,27.86
2019-04-25T16:57:45.408Z,28.49
2019-04-25T17:00:20.198Z,28.45
2019-04-25T17:02:44.801Z,27.96
2019-04-25T17:05:09.871Z,28.42
2019-04-25T17:07:34.323Z,28.25
2019-04-25T17:09:58.882Z,28.33
2019-04-25T17:12:24.164Z,28.14
2019-04-25T17:14:56.176Z,28.19
2019-04-25T17:17:25.325Z,28.17
2019-04-25T17:19:51.570Z,27.94
2019-04-25T17:22:16.462Z,27.99
2019-04-25T17:24:41.266Z,27.92
2019-04-25T17:27:07.534Z,27.95
2019-04-25T17:29:32.524Z,27.55
2019-04-25T17:32:04.471Z,27.84
2019-04-25T17:34:46.651Z,27.74
2019-04-25T17:37:22.070Z,27.64
2019-04-25T17:39:51.130Z,27.49
2019-04-25T17:42:15.765Z,27.40
2019-04-25T17:44:40.559Z,27.50
2019-04-25T17:47:06.377Z,27.18
2019-04-25T17:49:32.763Z,27.21
2019-04-25T17:51:57.261Z,27.19
2019-04-25T17:54:21.737Z,27.16
2019-04-25T17:56:46.280Z,27.06
2019-04-25T17:59:10.881Z,26.92
2019-04-25T18:01:35.988Z,26.84
2019-04-25T18:04:00.685Z,26.77
2019-04-25T18:06:25.208Z,26.71
2019-04-25T18:08:49.769Z,26.63
2019-04-25T18:11:14.369Z,26.51
2019-04-25T18:13:41.107Z,26.33
2019-04-25T18:16:10.174Z,26.38
2019-04-25T18:18:37.080Z,26.35
2019-04-25T18:21:01.603Z,26.14
2019-04-25T18:23:27.776Z,26.20
2019-04-25T18:26:03.154Z,26.15
2019-04-25T18:28:29.263Z,26.14
2019-04-25T18:30:54.105Z,26.03
2019-04-25T18:33:20.219Z,25.97
2019-04-25T18:35:46.217Z,25.90
2019-04-25T18:38:15.179Z,25.86
2019-04-25T18:40:44.141Z,25.75
2019-04-25T18:43:10.373Z,25.84
2019-04-25T18:45:37.466Z,25.50
2019-04-25T18:48:02.737Z,25.65
2019-04-25T18:50:28.884Z,25.65
2019-04-25T18:52:55.127Z,25.48
2019-04-25T18:55:21.270Z,25.41
2019-04-25T18:57:47.374Z,25.41
2019-04-25T19:00:19.868Z,25.22
2019-04-25T19:02:49.093Z,25.28
2019-04-25T19:05:15.272Z,25.13
2019-04-25T19:07:39.812Z,25.13
2019-04-25T19:10:07.010Z,25.15
2019-04-25T19:12:31.483Z,25.06
2019-04-25T19:14:56.084Z,24.86
2019-04-25T19:17:20.622Z,24.91
2019-04-25T19:19:45.648Z,24.89
2019-04-25T19:22:10.291Z,24.92
2019-04-25T19:24:34.806Z,24.77
2019-04-25T19:26:59.277Z,24.66
2019-04-25T19:29:23.833Z,24.76
2019-04-25T19:31:48.435Z,24.63
2019-04-25T19:34:13.006Z,24.63
2019-04-25T19:36:37.456Z,24.61
2019-04-25T19:39:01.947Z,24.52
2019-04-25T19:41:28.043Z,24.49
2019-04-25T19:44:03.208Z,24.54
2019-04-25T19:46:32.106Z,24.44
2019-04-25T19:48:56.658Z,24.43
2019-04-25T19:51:21.322Z,24.18
2019-04-25T19:53:45.911Z,24.22
2019-04-25T19:56:10.453Z,23.88
2019-04-25T19:58:35.082Z,24.23
2019-04-25T20:00:59.613Z,24.18
2019-04-25T20:03:28.808Z,24.19
2019-04-25T20:05:54.980Z,24.15
2019-04-25T20:08:23.931Z,24.12
2019-04-25T20:10:53.545Z,23.88
2019-04-25T20:13:18.025Z,23.54
2019-04-25T20:15:43.159Z,23.61
2019-04-25T20:18:08.594Z,23.69
2019-04-25T20:20:33.165Z,23.75
2019-04-25T20:22:57.703Z,23.84
2019-04-25T20:25:22.198Z,23.76
2019-04-25T20:27:46.796Z,23.82
2019-04-25T20:30:11.705Z,23.79
2019-04-25T20:32:36.319Z,23.73
2019-04-25T20:35:00.793Z,23.65
2019-04-25T20:37:25.246Z,23.26
2019-04-25T20:39:49.740Z,23.52
2019-04-25T20:42:14.250Z,23.47
2019-04-25T20:44:38.705Z,23.69
2019-04-25T20:47:03.261Z,23.81
2019-04-25T20:49:27.730Z,23.75
2019-04-25T20:51:52.614Z,23.68
2019-04-25T20:54:17.229Z,23.56
2019-04-25T20:56:41.753Z,23.45
2019-04-25T20:59:06.267Z,23.48
2019-04-25T21:01:30.823Z,23.70
2019-04-25T21:03:55.314Z,23.40
2019-04-25T21:06:22.291Z,23.40
2019-04-25T21:08:46.747Z,23.34
2019-04-25T21:11:11.424Z,23.15
2019-04-25T21:13:37.608Z,23.53
2019-04-25T21:16:12.586Z,23.62
2019-04-25T21:18:38.713Z,23.46
2019-04-25T21:21:03.228Z,23.62
2019-04-25T21:23:27.691Z,23.64
2019-04-25T21:25:52.921Z,23.63
2019-04-25T21:28:17.560Z,23.48
2019-04-25T21:30:42.020Z,23.34
2019-04-25T21:33:06.556Z,23.41
2019-04-25T21:35:31.293Z,23.39
2019-04-25T21:37:55.833Z,23.34
2019-04-25T21:40:24.688Z,23.26
2019-04-25T21:43:00.079Z,23.25
2019-04-25T21:45:24.973Z,23.19
2019-04-25T21:47:49.715Z,23.14
2019-04-25T21:50:14.796Z,23.17
2019-04-25T21:52:39.506Z,23.12
2019-04-25T21:55:05.852Z,23.04
2019-04-25T21:57:30.485Z,22.98
2019-04-25T22:00:03.118Z,23.13
2019-04-25T22:02:21.612Z,22.91
2019-04-25T22:04:46.421Z,22.87
2019-04-25T22:07:11.686Z,22.75
2019-04-25T22:09:36.567Z,22.97
2019-04-25T22:12:01.831Z,22.88
2019-04-25T22:14:26.375Z,22.74
2019-04-25T22:16:51.387Z,22.67
2019-04-25T22:19:16.099Z,22.67
2019-04-25T22:21:40.922Z,22.57
2019-04-25T22:24:13.009Z,22.65
2019-04-25T22:26:31.946Z,22.81
2019-04-25T22:28:57.729Z,22.80
2019-04-25T22:31:24.079Z,22.72
2019-04-25T22:34:06.750Z,22.45
2019-04-25T22:36:31.451Z,22.66
2019-04-25T22:39:14.521Z,22.72
2019-04-25T22:41:41.516Z,22.66
2019-04-25T22:44:07.918Z,22.19
2019-04-25T22:46:32.593Z,22.32
2019-04-25T22:48:57.343Z,22.50
2019-04-25T22:51:21.804Z,22.37
2019-04-25T22:53:47.850Z,22.58
2019-04-25T22:56:12.398Z,22.47
2019-04-25T22:58:36.964Z,22.24
2019-04-25T23:01:03.425Z,22.51
2019-04-25T23:03:29.540Z,22.41
2019-04-25T23:05:55.790Z,22.42
2019-04-25T23:08:20.523Z,22.16
2019-04-25T23:10:45.030Z,22.11
2019-04-25T23:13:10.881Z,21.93
2019-04-25T23:15:35.382Z,22.30
2019-04-25T23:17:59.914Z,21.93
2019-04-25T23:20:24.439Z,22.08
2019-04-25T23:22:48.893Z,22.00
2019-04-25T23:25:15.297Z,21.62
2019-04-25T23:27:53.482Z,21.84
2019-04-25T23:30:19.854Z,22.02
2019-04-25T23:32:44.365Z,22.05
2019-04-25T23:35:24.265Z,21.96
2019-04-25T23:37:35.176Z,22.01
2019-04-25T23:39:59.624Z,21.83
2019-04-25T23:42:24.153Z,21.68
2019-04-25T23:44:48.803Z,21.48
2019-04-25T23:47:14.315Z,21.66
2019-04-25T23:49:38.807Z,21.70
2019-04-25T23:52:03.559Z,21.37
2019-04-25T23:54:28.073Z,21.71
2019-04-25T23:56:52.792Z,21.70
2019-04-25T23:59:17.802Z,21.36
